sensor_id;sensor_type;location;lat;lon;timestamp;pressure;altitude;pressure_sealevel;temperature;humidity
45327;BME280;31062;49.678;24.560;2023-06-10T00:00:59;97759.81;;;17.95;70.58
45327;BME280;31062;49.678;24.560;2023-06-10T00:03:45;97855.72;;;18.59;70.49
45327;BME280;31062;49.678;24.560;2023-06-10T00:06:31;97768.69;;;17.90;70.64
45327;BME280;31062;49.678;24.560;2023-06-10T00:09:20;97853.53;;;18.57;70.63
45327;BME280;31062;49.678;24.560;2023-06-10T00:12:09;97744.56;;;17.83;70.21
45327;BME280;31062;49.678;24.560;2023-06-10T00:14:55;97893.47;;;18.91;70.37
45327;BME280;31062;49.678;24.560;2023-06-10T00:17:40;97773.44;;;18.03;70.29
45327;BME280;31062;49.678;24.560;2023-06-10T00:20:26;97900.53;;;18.92;70.44
45327;BME280;31062;49.678;24.560;2023-06-10T00:23:11;97746.91;;;17.88;70.54
45327;BME280;31062;49.678;24.560;2023-06-10T00:26:00;97877.19;;;18.88;70.50
45327;BME280;31062;49.678;24.560;2023-06-10T00:28:45;97901.56;;;19.01;69.96
45327;BME280;31062;49.678;24.560;2023-06-10T00:31:31;97909.38;;;19.02;69.87
45327;BME280;31062;49.678;24.560;2023-06-10T00:34:16;97815.97;;;18.49;70.08
45327;BME280;31062;49.678;24.560;2023-06-10T00:37:02;97877.28;;;18.72;69.65
45327;BME280;31062;49.678;24.560;2023-06-10T00:39:48;97756.78;;;18.07;69.49
45327;BME280;31062;49.678;24.560;2023-06-10T00:42:33;97779.97;;;18.25;69.04
45327;BME280;31062;49.678;24.560;2023-06-10T00:45:18;97771.53;;;18.25;69.20
45327;BME280;31062;49.678;24.560;2023-06-10T00:48:04;97829.31;;;18.66;68.23
45327;BME280;31062;49.678;24.560;2023-06-10T00:50:50;97774.69;;;18.33;68.45
45327;BME280;31062;49.678;24.560;2023-06-10T00:53:40;97841.00;;;18.78;68.73
45327;BME280;31062;49.678;24.560;2023-06-10T00:56:26;97757.44;;;18.23;68.58
45327;BME280;31062;49.678;24.560;2023-06-10T00:59:13;97895.75;;;19.32;69.60
45327;BME280;31062;49.678;24.560;2023-06-10T01:02:00;97841.00;;;18.78;69.37
45327;BME280;31062;49.678;24.560;2023-06-10T01:04:48;97896.56;;;19.35;69.64
45327;BME280;31062;49.678;24.560;2023-06-10T01:07:41;97866.19;;;19.11;69.56
45327;BME280;31062;49.678;24.560;2023-06-10T01:10:33;97918.47;;;19.38;69.60
45327;BME280;31062;49.678;24.560;2023-06-10T01:13:22;97882.59;;;19.19;69.89
45327;BME280;31062;49.678;24.560;2023-06-10T01:16:09;97858.31;;;18.90;69.99
45327;BME280;31062;49.678;24.560;2023-06-10T01:18:56;97768.97;;;18.31;70.46
45327;BME280;31062;49.678;24.560;2023-06-10T01:21:43;97904.38;;;19.18;70.76
45327;BME280;31062;49.678;24.560;2023-06-10T01:24:36;97756.78;;;18.07;70.77
45327;BME280;31062;49.678;24.560;2023-06-10T01:27:26;97764.56;;;18.09;71.19
45327;BME280;31062;49.678;24.560;2023-06-10T01:30:19;97848.88;;;18.64;71.21
45327;BME280;31062;49.678;24.560;2023-06-10T01:33:12;97849.53;;;18.62;71.17
45327;BME280;31062;49.678;24.560;2023-06-10T01:36:01;97913.84;;;19.09;71.28
45327;BME280;31062;49.678;24.560;2023-06-10T01:38:49;97797.13;;;18.16;71.49
45327;BME280;31062;49.678;24.560;2023-06-10T01:41:35;97829.19;;;18.28;71.48
45327;BME280;31062;49.678;24.560;2023-06-10T01:44:22;97776.13;;;17.83;71.97
45327;BME280;31062;49.678;24.560;2023-06-10T01:47:08;97899.91;;;18.58;72.42
45327;BME280;31062;49.678;24.560;2023-06-10T01:49:54;97775.16;;;17.77;72.90
45327;BME280;31062;49.678;24.560;2023-06-10T01:52:39;97851.88;;;18.34;72.34
45327;BME280;31062;49.678;24.560;2023-06-10T01:55:25;97949.50;;;18.87;72.76
45327;BME280;31062;49.678;24.560;2023-06-10T01:58:10;97793.94;;;17.90;72.49
45327;BME280;31062;49.678;24.560;2023-06-10T02:00:55;97786.72;;;17.85;72.34
45327;BME280;31062;49.678;24.560;2023-06-10T02:03:40;97791.13;;;17.90;72.83
45327;BME280;31062;49.678;24.560;2023-06-10T02:06:26;97779.81;;;17.88;72.59
45327;BME280;31062;49.678;24.560;2023-06-10T02:09:12;97801.50;;;18.03;71.91
45327;BME280;31062;49.678;24.560;2023-06-10T02:11:57;97948.19;;;18.90;71.60
45327;BME280;31062;49.678;24.560;2023-06-10T02:14:43;97805.81;;;18.06;71.77
45327;BME280;31062;49.678;24.560;2023-06-10T02:17:29;97945.63;;;18.96;71.86
45327;BME280;31062;49.678;24.560;2023-06-10T02:20:15;97941.47;;;18.97;72.19
45327;BME280;31062;49.678;24.560;2023-06-10T02:23:00;97944.38;;;18.99;71.68
45327;BME280;31062;49.678;24.560;2023-06-10T02:25:46;97930.97;;;18.98;72.26
45327;BME280;31062;49.678;24.560;2023-06-10T02:28:33;97779.13;;;17.87;72.43
45327;BME280;31062;49.678;24.560;2023-06-10T02:31:19;97875.00;;;18.51;72.07
45327;BME280;31062;49.678;24.560;2023-06-10T02:34:05;97892.06;;;18.39;72.91
45327;BME280;31062;49.678;24.560;2023-06-10T02:36:50;97889.31;;;18.57;72.54
45327;BME280;31062;49.678;24.560;2023-06-10T02:39:39;97875.38;;;18.43;72.92
45327;BME280;31062;49.678;24.560;2023-06-10T02:42:28;97930.47;;;18.86;73.29
45327;BME280;31062;49.678;24.560;2023-06-10T02:45:13;97821.03;;;18.01;73.28
45327;BME280;31062;49.678;24.560;2023-06-10T02:48:01;97943.88;;;18.87;73.06
45327;BME280;31062;49.678;24.560;2023-06-10T02:50:47;97783.31;;;17.71;73.16
45327;BME280;31062;49.678;24.560;2023-06-10T02:53:39;97918.25;;;18.61;72.89
45327;BME280;31062;49.678;24.560;2023-06-10T02:56:28;97838.22;;;18.09;72.90
45327;BME280;31062;49.678;24.560;2023-06-10T02:59:17;97807.31;;;17.91;73.08
45327;BME280;31062;49.678;24.560;2023-06-10T03:02:03;97810.75;;;17.90;73.27
45327;BME280;31062;49.678;24.560;2023-06-10T03:04:55;97946.56;;;18.67;73.30
45327;BME280;31062;49.678;24.560;2023-06-10T03:07:41;97924.22;;;18.54;73.48
45327;BME280;31062;49.678;24.560;2023-06-10T03:10:27;97810.09;;;17.74;73.56
45327;BME280;31062;49.678;24.560;2023-06-10T03:13:13;97798.34;;;17.62;73.51
45327;BME280;31062;49.678;24.560;2023-06-10T03:15:59;97909.28;;;18.31;73.61
45327;BME280;31062;49.678;24.560;2023-06-10T03:18:46;97792.34;;;17.53;73.72
45327;BME280;31062;49.678;24.560;2023-06-10T03:21:31;97807.03;;;17.68;73.91
45327;BME280;31062;49.678;24.560;2023-06-10T03:24:17;97949.38;;;18.67;73.66
45327;BME280;31062;49.678;24.560;2023-06-10T03:27:03;97795.63;;;17.64;73.45
45327;BME280;31062;49.678;24.560;2023-06-10T03:29:50;97827.22;;;17.82;73.68
45327;BME280;31062;49.678;24.560;2023-06-10T03:32:35;97796.19;;;17.60;73.47
45327;BME280;31062;49.678;24.560;2023-06-10T03:35:23;97912.75;;;18.48;73.90
45327;BME280;31062;49.678;24.560;2023-06-10T03:38:09;97817.13;;;17.75;73.40
45327;BME280;31062;49.678;24.560;2023-06-10T03:40:55;97815.84;;;17.78;73.89
45327;BME280;31062;49.678;24.560;2023-06-10T03:43:40;97782.44;;;17.50;73.94
45327;BME280;31062;49.678;24.560;2023-06-10T03:46:26;97826.84;;;17.89;73.70
45327;BME280;31062;49.678;24.560;2023-06-10T03:49:12;97957.84;;;18.85;73.62
45327;BME280;31062;49.678;24.560;2023-06-10T03:51:58;97829.44;;;18.01;73.42
45327;BME280;31062;49.678;24.560;2023-06-10T03:54:44;97946.84;;;18.91;73.45
45327;BME280;31062;49.678;24.560;2023-06-10T03:57:29;97799.69;;;17.94;72.92
45327;BME280;31062;49.678;24.560;2023-06-10T04:00:16;97972.75;;;19.07;72.67
45327;BME280;31062;49.678;24.560;2023-06-10T04:03:02;97982.72;;;19.10;72.48
45327;BME280;31062;49.678;24.560;2023-06-10T04:05:57;97953.44;;;19.15;72.22
45327;BME280;31062;49.678;24.560;2023-06-10T04:08:44;97942.28;;;19.17;72.29
45327;BME280;31062;49.678;24.560;2023-06-10T04:11:30;97943.06;;;19.20;72.02
45327;BME280;31062;49.678;24.560;2023-06-10T04:14:16;97970.38;;;19.17;71.50
45327;BME280;31062;49.678;24.560;2023-06-10T04:17:02;97875.50;;;18.81;71.15
45327;BME280;31062;49.678;24.560;2023-06-10T04:19:48;97945.78;;;19.36;71.36
45327;BME280;31062;49.678;24.560;2023-06-10T04:22:33;97788.38;;;18.25;71.39
45327;BME280;31062;49.678;24.560;2023-06-10T04:25:19;97950.13;;;19.39;71.87
45327;BME280;31062;49.678;24.560;2023-06-10T04:28:07;97942.44;;;19.22;72.50
45327;BME280;31062;49.678;24.560;2023-06-10T04:30:54;97780.44;;;18.20;72.04
45327;BME280;31062;49.678;24.560;2023-06-10T04:33:40;97923.25;;;19.16;72.08
45327;BME280;31062;49.678;24.560;2023-06-10T04:36:26;97807.16;;;18.39;72.93
45327;BME280;31062;49.678;24.560;2023-06-10T04:39:12;97943.22;;;19.42;73.54
45327;BME280;31062;49.678;24.560;2023-06-10T04:41:58;97941.44;;;19.33;73.39
45327;BME280;31062;49.678;24.560;2023-06-10T04:44:44;97817.56;;;18.54;73.04
45327;BME280;31062;49.678;24.560;2023-06-10T04:47:30;97830.25;;;18.55;73.34
45327;BME280;31062;49.678;24.560;2023-06-10T04:50:19;97920.59;;;19.20;73.69
45327;BME280;31062;49.678;24.560;2023-06-10T04:53:04;97830.88;;;18.53;73.74
45327;BME280;31062;49.678;24.560;2023-06-10T04:55:53;97828.91;;;18.56;73.92
45327;BME280;31062;49.678;24.560;2023-06-10T04:58:38;97952.06;;;19.52;73.90
45327;BME280;31062;49.678;24.560;2023-06-10T05:01:23;97806.34;;;18.54;73.80
45327;BME280;31062;49.678;24.560;2023-06-10T05:04:08;97962.88;;;19.60;73.92
45327;BME280;31062;49.678;24.560;2023-06-10T05:06:54;97962.31;;;19.63;73.08
45327;BME280;31062;49.678;24.560;2023-06-10T05:09:40;97806.53;;;18.58;72.79
45327;BME280;31062;49.678;24.560;2023-06-10T05:12:26;97974.44;;;19.68;72.96
45327;BME280;31062;49.678;24.560;2023-06-10T05:15:11;97956.69;;;19.63;73.89
45327;BME280;31062;49.678;24.560;2023-06-10T05:17:57;97833.78;;;18.73;73.29
45327;BME280;31062;49.678;24.560;2023-06-10T05:20:43;97796.00;;;18.41;73.32
45327;BME280;31062;49.678;24.560;2023-06-10T05:23:29;97935.59;;;19.09;73.54
45327;BME280;31062;49.678;24.560;2023-06-10T05:26:15;97837.66;;;18.64;73.79
45327;BME280;31062;49.678;24.560;2023-06-10T05:29:00;97961.75;;;19.49;73.79
45327;BME280;31062;49.678;24.560;2023-06-10T05:31:46;97957.94;;;19.05;74.46
45327;BME280;31062;49.678;24.560;2023-06-10T05:34:31;97911.13;;;19.11;75.29
45327;BME280;31062;49.678;24.560;2023-06-10T05:37:17;97801.69;;;18.43;74.77
45327;BME280;31062;49.678;24.560;2023-06-10T05:40:03;97943.03;;;19.38;74.92
45327;BME280;31062;49.678;24.560;2023-06-10T05:42:49;97979.63;;;19.75;74.91
45327;BME280;31062;49.678;24.560;2023-06-10T05:45:35;97943.75;;;19.56;74.71
45327;BME280;31062;49.678;24.560;2023-06-10T05:48:20;97985.72;;;19.87;74.59
45327;BME280;31062;49.678;24.560;2023-06-10T05:51:06;97948.47;;;19.69;73.85
45327;BME280;31062;49.678;24.560;2023-06-10T05:53:52;97979.50;;;19.91;73.70
45327;BME280;31062;49.678;24.560;2023-06-10T05:56:38;97951.44;;;19.73;73.01
45327;BME280;31062;49.678;24.560;2023-06-10T05:59:23;97895.19;;;19.36;73.00
45327;BME280;31062;49.678;24.560;2023-06-10T06:02:09;97978.22;;;19.94;73.20
45327;BME280;31062;49.678;24.560;2023-06-10T06:04:54;97879.31;;;19.25;73.09
45327;BME280;31062;49.678;24.560;2023-06-10T06:07:40;97937.34;;;19.53;73.45
45327;BME280;31062;49.678;24.560;2023-06-10T06:10:25;97981.91;;;19.98;73.80
45327;BME280;31062;49.678;24.560;2023-06-10T06:13:11;97932.69;;;19.60;74.49
45327;BME280;31062;49.678;24.560;2023-06-10T06:15:57;98007.38;;;20.03;74.35
45327;BME280;31062;49.678;24.560;2023-06-10T06:18:43;97980.91;;;20.10;73.70
45327;BME280;31062;49.678;24.560;2023-06-10T06:21:28;97982.47;;;20.15;73.74
45327;BME280;31062;49.678;24.560;2023-06-10T06:24:15;97889.56;;;19.53;73.91
45327;BME280;31062;49.678;24.560;2023-06-10T06:27:01;97998.44;;;20.28;74.32
45327;BME280;31062;49.678;24.560;2023-06-10T06:29:47;97987.34;;;20.32;74.31
45327;BME280;31062;49.678;24.560;2023-06-10T06:32:32;97830.25;;;19.28;74.18
45327;BME280;31062;49.678;24.560;2023-06-10T06:35:18;97980.44;;;20.35;74.21
45327;BME280;31062;49.678;24.560;2023-06-10T06:38:04;97894.13;;;19.82;73.31
45327;BME280;31062;49.678;24.560;2023-06-10T06:40:51;97944.75;;;20.22;74.12
45327;BME280;31062;49.678;24.560;2023-06-10T06:43:46;97988.06;;;20.52;74.10
45327;BME280;31062;49.678;24.560;2023-06-10T06:46:47;97968.78;;;20.45;73.73
45327;BME280;31062;49.678;24.560;2023-06-10T06:49:33;97977.06;;;20.60;73.71
45327;BME280;31062;49.678;24.560;2023-06-10T06:52:18;97822.81;;;19.54;73.37
45327;BME280;31062;49.678;24.560;2023-06-10T06:55:05;97994.19;;;20.66;73.29
45327;BME280;31062;49.678;24.560;2023-06-10T06:57:51;97905.22;;;20.18;73.37
45327;BME280;31062;49.678;24.560;2023-06-10T07:00:37;97981.59;;;20.69;73.90
45327;BME280;31062;49.678;24.560;2023-06-10T07:03:23;97980.31;;;20.72;74.53
45327;BME280;31062;49.678;24.560;2023-06-10T07:06:08;97806.72;;;19.56;74.23
45327;BME280;31062;49.678;24.560;2023-06-10T07:08:54;97941.16;;;20.39;74.06
45327;BME280;31062;49.678;24.560;2023-06-10T07:11:40;97973.88;;;20.70;74.03
45327;BME280;31062;49.678;24.560;2023-06-10T07:14:26;97953.75;;;20.58;73.97
45327;BME280;31062;49.678;24.560;2023-06-10T07:17:11;97982.09;;;20.84;74.50
45327;BME280;31062;49.678;24.560;2023-06-10T07:19:58;97956.97;;;20.70;74.73
45327;BME280;31062;49.678;24.560;2023-06-10T07:22:46;97988.25;;;21.00;74.36
45327;BME280;31062;49.678;24.560;2023-06-10T07:25:32;97984.13;;;21.03;73.07
45327;BME280;31062;49.678;24.560;2023-06-10T07:28:17;97979.25;;;21.05;73.09
45327;BME280;31062;49.678;24.560;2023-06-10T07:31:03;97991.59;;;21.16;72.93
45327;BME280;31062;49.678;24.560;2023-06-10T07:33:49;97956.31;;;20.93;72.29
45327;BME280;31062;49.678;24.560;2023-06-10T07:36:35;97986.16;;;21.22;72.67
45327;BME280;31062;49.678;24.560;2023-06-10T07:39:22;97931.63;;;20.92;72.60
45327;BME280;31062;49.678;24.560;2023-06-10T07:42:07;97975.03;;;21.26;71.57
45327;BME280;31062;49.678;24.560;2023-06-10T07:44:53;97852.50;;;20.40;70.67
45327;BME280;31062;49.678;24.560;2023-06-10T07:47:39;97857.09;;;20.51;70.59
45327;BME280;31062;49.678;24.560;2023-06-10T07:50:25;97863.84;;;20.64;70.87
45327;BME280;31062;49.678;24.560;2023-06-10T07:53:11;97984.53;;;21.61;69.66
45327;BME280;31062;49.678;24.560;2023-06-10T07:55:57;97997.69;;;21.76;69.21
45327;BME280;31062;49.678;24.560;2023-06-10T07:58:43;97996.41;;;21.81;68.51
45327;BME280;31062;49.678;24.560;2023-06-10T08:01:29;97952.72;;;21.58;67.89
45327;BME280;31062;49.678;24.560;2023-06-10T08:04:15;98004.69;;;21.96;68.38
45327;BME280;31062;49.678;24.560;2023-06-10T08:07:01;98002.69;;;22.01;67.73
45327;BME280;31062;49.678;24.560;2023-06-10T08:09:47;97798.41;;;20.65;67.55
45327;BME280;31062;49.678;24.560;2023-06-10T08:12:33;97995.72;;;22.04;67.35
45327;BME280;31062;49.678;24.560;2023-06-10T08:15:18;97877.63;;;21.21;67.71
45327;BME280;31062;49.678;24.560;2023-06-10T08:18:04;97849.06;;;21.09;68.26
45327;BME280;31062;49.678;24.560;2023-06-10T08:20:50;97987.59;;;22.16;67.74
45327;BME280;31062;49.678;24.560;2023-06-10T08:23:35;97852.25;;;21.21;68.19
45327;BME280;31062;49.678;24.560;2023-06-10T08:26:21;97939.97;;;21.81;68.34
45327;BME280;31062;49.678;24.560;2023-06-10T08:29:06;97907.22;;;21.70;67.73
45327;BME280;31062;49.678;24.560;2023-06-10T08:31:53;97977.13;;;22.21;67.81
45327;BME280;31062;49.678;24.560;2023-06-10T08:34:39;97992.47;;;22.39;67.41
45327;BME280;31062;49.678;24.560;2023-06-10T08:37:26;97999.59;;;22.43;67.23
45327;BME280;31062;49.678;24.560;2023-06-10T08:40:12;97975.78;;;22.24;67.90
45327;BME280;31062;49.678;24.560;2023-06-10T08:43:06;97987.81;;;22.24;67.67
45327;BME280;31062;49.678;24.560;2023-06-10T08:45:58;98013.84;;;22.47;67.68
45327;BME280;31062;49.678;24.560;2023-06-10T08:48:49;98015.16;;;22.44;67.71
45327;BME280;31062;49.678;24.560;2023-06-10T08:51:42;97934.22;;;21.77;67.71
45327;BME280;31062;49.678;24.560;2023-06-10T08:54:32;97981.91;;;22.14;68.30
45327;BME280;31062;49.678;24.560;2023-06-10T08:57:23;97961.84;;;22.04;67.63
45327;BME280;31062;49.678;24.560;2023-06-10T09:00:10;98043.31;;;22.39;67.91
45327;BME280;31062;49.678;24.560;2023-06-10T09:02:58;98027.75;;;22.38;68.19
45327;BME280;31062;49.678;24.560;2023-06-10T09:05:49;98019.16;;;22.34;68.64
45327;BME280;31062;49.678;24.560;2023-06-10T09:08:35;98011.53;;;22.39;68.82
45327;BME280;31062;49.678;24.560;2023-06-10T09:11:24;97866.03;;;21.35;68.70
45327;BME280;31062;49.678;24.560;2023-06-10T09:14:11;97898.38;;;21.55;69.10
45327;BME280;31062;49.678;24.560;2023-06-10T09:16:58;98018.06;;;22.46;69.22
45327;BME280;31062;49.678;24.560;2023-06-10T09:19:44;98016.72;;;22.49;68.43
45327;BME280;31062;49.678;24.560;2023-06-10T09:22:30;97909.72;;;21.83;68.67
45327;BME280;31062;49.678;24.560;2023-06-10T09:25:16;97921.00;;;22.07;69.27
45327;BME280;31062;49.678;24.560;2023-06-10T09:28:04;98037.59;;;22.89;68.91
45327;BME280;31062;49.678;24.560;2023-06-10T09:30:49;98010.34;;;23.02;68.93
45327;BME280;31062;49.678;24.560;2023-06-10T09:33:39;97893.47;;;22.33;68.13
45327;BME280;31062;49.678;24.560;2023-06-10T09:36:25;97889.41;;;22.40;67.56
45327;BME280;31062;49.678;24.560;2023-06-10T09:39:17;98016.25;;;23.42;66.93
45327;BME280;31062;49.678;24.560;2023-06-10T09:42:15;98011.31;;;23.42;66.92
45327;BME280;31062;49.678;24.560;2023-06-10T09:45:06;98011.56;;;23.50;67.99
45327;BME280;31062;49.678;24.560;2023-06-10T09:47:53;97976.81;;;23.48;68.84
45327;BME280;31062;49.678;24.560;2023-06-10T09:50:45;97867.84;;;22.81;66.15
45327;BME280;31062;49.678;24.560;2023-06-10T09:53:33;97983.72;;;23.71;65.71
45327;BME280;31062;49.678;24.560;2023-06-10T09:56:19;97957.16;;;23.54;65.91
45327;BME280;31062;49.678;24.560;2023-06-10T09:59:06;97999.09;;;23.95;66.44
45327;BME280;31062;49.678;24.560;2023-06-10T10:01:55;97991.31;;;23.96;65.97
45327;BME280;31062;49.678;24.560;2023-06-10T10:04:41;97985.34;;;24.16;65.74
45327;BME280;31062;49.678;24.560;2023-06-10T10:07:27;97985.50;;;24.22;64.13
45327;BME280;31062;49.678;24.560;2023-06-10T10:10:14;97951.13;;;24.04;62.94
45327;BME280;31062;49.678;24.560;2023-06-10T10:13:01;97873.59;;;23.49;62.61
45327;BME280;31062;49.678;24.560;2023-06-10T10:15:48;97953.78;;;23.95;62.67
45327;BME280;31062;49.678;24.560;2023-06-10T10:18:35;97846.41;;;23.34;62.69
45327;BME280;31062;49.678;24.560;2023-06-10T10:21:26;97913.97;;;23.85;62.99
45327;BME280;31062;49.678;24.560;2023-06-10T10:24:21;97956.59;;;24.27;63.41
45327;BME280;31062;49.678;24.560;2023-06-10T10:27:11;97832.56;;;23.48;62.28
45327;BME280;31062;49.678;24.560;2023-06-10T10:30:01;97990.47;;;24.59;60.52
45327;BME280;31062;49.678;24.560;2023-06-10T10:33:05;97993.47;;;24.69;61.40
45327;BME280;31062;49.678;24.560;2023-06-10T10:35:56;97933.53;;;24.45;60.67
45327;BME280;31062;49.678;24.560;2023-06-10T10:38:45;97971.03;;;24.81;59.46
45327;BME280;31062;49.678;24.560;2023-06-10T10:41:38;97948.06;;;24.65;59.52
45327;BME280;31062;49.678;24.560;2023-06-10T10:44:24;97854.88;;;24.04;59.81
45327;BME280;31062;49.678;24.560;2023-06-10T10:47:11;97837.78;;;23.97;59.93
45327;BME280;31062;49.678;24.560;2023-06-10T10:49:57;97959.78;;;24.88;59.95
45327;BME280;31062;49.678;24.560;2023-06-10T10:52:56;97954.78;;;24.86;59.49
45327;BME280;31062;49.678;24.560;2023-06-10T10:55:42;97883.22;;;24.44;59.41
45327;BME280;31062;49.678;24.560;2023-06-10T10:58:27;97849.00;;;24.31;58.89
45327;BME280;31062;49.678;24.560;2023-06-10T11:01:13;97933.00;;;24.95;58.32
45327;BME280;31062;49.678;24.560;2023-06-10T11:04:07;97814.13;;;24.19;57.99
45327;BME280;31062;49.678;24.560;2023-06-10T11:06:54;97927.31;;;24.95;58.08
45327;BME280;31062;49.678;24.560;2023-06-10T11:12:54;97850.75;;;24.51;58.67
45327;BME280;31062;49.678;24.560;2023-06-10T11:15:44;97883.03;;;24.75;58.17
45327;BME280;31062;49.678;24.560;2023-06-10T11:18:35;97907.53;;;24.99;58.25
45327;BME280;31062;49.678;24.560;2023-06-10T11:21:24;97792.97;;;24.24;57.46
45327;BME280;31062;49.678;24.560;2023-06-10T11:24:13;97887.66;;;24.97;57.89
45327;BME280;31062;49.678;24.560;2023-06-10T11:27:22;97800.75;;;24.25;56.64
45327;BME280;31062;49.678;24.560;2023-06-10T11:30:19;97759.84;;;23.92;56.15
45327;BME280;31062;49.678;24.560;2023-06-10T11:33:05;97884.59;;;24.83;56.83
45327;BME280;31062;49.678;24.560;2023-06-10T11:35:51;97843.78;;;24.58;56.10
45327;BME280;31062;49.678;24.560;2023-06-10T11:38:37;97913.44;;;25.13;57.17
45327;BME280;31062;49.678;24.560;2023-06-10T11:41:23;97919.22;;;25.21;55.22
45327;BME280;31062;49.678;24.560;2023-06-10T11:44:12;97932.75;;;25.27;54.84
45327;BME280;31062;49.678;24.560;2023-06-10T11:47:03;97882.16;;;25.07;54.68
45327;BME280;31062;49.678;24.560;2023-06-10T11:49:56;97913.72;;;25.33;54.23
45327;BME280;31062;49.678;24.560;2023-06-10T11:52:42;97912.09;;;25.18;54.21
45327;BME280;31062;49.678;24.560;2023-06-10T11:55:48;97898.66;;;25.23;53.36
45327;BME280;31062;49.678;24.560;2023-06-10T11:58:35;97763.22;;;24.23;53.52
45327;BME280;31062;49.678;24.560;2023-06-10T12:01:22;97914.34;;;25.26;54.53
45327;BME280;31062;49.678;24.560;2023-06-10T12:04:15;97872.97;;;25.10;54.49
45327;BME280;31062;49.678;24.560;2023-06-10T12:07:02;97918.06;;;25.38;52.60
45327;BME280;31062;49.678;24.560;2023-06-10T12:09:58;97898.13;;;25.32;52.12
45327;BME280;31062;49.678;24.560;2023-06-10T12:12:57;97860.13;;;25.05;51.91
45327;BME280;31062;49.678;24.560;2023-06-10T12:15:43;97912.56;;;25.52;52.06
45327;BME280;31062;49.678;24.560;2023-06-10T12:18:29;97913.94;;;25.49;51.78
45327;BME280;31062;49.678;24.560;2023-06-10T12:21:19;97769.34;;;24.53;52.04
45327;BME280;31062;49.678;24.560;2023-06-10T12:24:10;97879.53;;;25.23;51.31
45327;BME280;31062;49.678;24.560;2023-06-10T12:26:56;97899.50;;;25.31;50.59
45327;BME280;31062;49.678;24.560;2023-06-10T12:29:53;97837.56;;;24.67;51.72
45327;BME280;31062;49.678;24.560;2023-06-10T12:32:40;97775.66;;;24.08;50.71
45327;BME280;31062;49.678;24.560;2023-06-10T12:35:27;97876.78;;;24.39;49.27
45327;BME280;31062;49.678;24.560;2023-06-10T12:38:14;97918.22;;;24.60;48.30
45327;BME280;31062;49.678;24.560;2023-06-10T12:41:02;97918.53;;;24.38;48.18
45327;BME280;31062;49.678;24.560;2023-06-10T12:43:51;97881.50;;;23.90;49.74
45327;BME280;31062;49.678;24.560;2023-06-10T12:46:37;97934.19;;;24.06;51.05
45327;BME280;31062;49.678;24.560;2023-06-10T12:49:24;97922.97;;;23.76;51.70
45327;BME280;31062;49.678;24.560;2023-06-10T12:52:12;97934.91;;;23.72;53.11
45327;BME280;31062;49.678;24.560;2023-06-10T12:55:01;97937.47;;;23.58;54.39
45327;BME280;31062;49.678;24.560;2023-06-10T12:57:50;97949.78;;;23.41;55.70
45327;BME280;31062;49.678;24.560;2023-06-10T13:00:36;97950.91;;;23.28;56.49
45327;BME280;31062;49.678;24.560;2023-06-10T13:03:21;97946.41;;;23.16;56.62
45327;BME280;31062;49.678;24.560;2023-06-10T13:06:07;97904.25;;;22.69;57.48
45327;BME280;31062;49.678;24.560;2023-06-10T13:08:52;97933.59;;;22.84;57.29
45327;BME280;31062;49.678;24.560;2023-06-10T13:11:38;97967.09;;;22.95;56.96
45327;BME280;31062;49.678;24.560;2023-06-10T13:14:24;97919.63;;;22.62;57.38
45327;BME280;31062;49.678;24.560;2023-06-10T13:17:10;97953.84;;;22.74;57.22
45327;BME280;31062;49.678;24.560;2023-06-10T13:19:56;97910.47;;;22.35;57.46
45327;BME280;31062;49.678;24.560;2023-06-10T13:22:42;97927.31;;;22.31;56.45
45327;BME280;31062;49.678;24.560;2023-06-10T13:25:28;97944.19;;;22.29;56.08
45327;BME280;31062;49.678;24.560;2023-06-10T13:28:13;97923.81;;;22.07;56.29
45327;BME280;31062;49.678;24.560;2023-06-10T13:30:59;97789.72;;;21.05;56.76
45327;BME280;31062;49.678;24.560;2023-06-10T13:33:44;97931.97;;;21.95;57.25
45327;BME280;31062;49.678;24.560;2023-06-10T13:36:38;97882.72;;;21.50;57.06
45327;BME280;31062;49.678;24.560;2023-06-10T13:39:24;97795.44;;;20.83;58.40
45327;BME280;31062;49.678;24.560;2023-06-10T13:42:10;97949.47;;;21.91;58.91
45327;BME280;31062;49.678;24.560;2023-06-10T13:44:55;97798.25;;;20.83;58.02
45327;BME280;31062;49.678;24.560;2023-06-10T13:47:41;97913.31;;;21.60;59.66
45327;BME280;31062;49.678;24.560;2023-06-10T13:50:27;97931.22;;;21.71;61.17
45327;BME280;31062;49.678;24.560;2023-06-10T13:53:13;97806.97;;;20.69;62.16
45327;BME280;31062;49.678;24.560;2023-06-10T13:55:58;97984.53;;;21.61;63.27
45327;BME280;31062;49.678;24.560;2023-06-10T13:58:46;97957.13;;;21.17;64.85
45327;BME280;31062;49.678;24.560;2023-06-10T14:01:34;97959.66;;;20.88;66.17
45327;BME280;31062;49.678;24.560;2023-06-10T14:04:21;97895.81;;;20.31;66.44
45327;BME280;31062;49.678;24.560;2023-06-10T14:07:07;98007.56;;;20.88;67.05
45327;BME280;31062;49.678;24.560;2023-06-10T14:09:53;97898.00;;;20.13;68.39
45327;BME280;31062;49.678;24.560;2023-06-10T14:12:40;97993.78;;;20.76;68.34
45327;BME280;31062;49.678;24.560;2023-06-10T14:15:26;97864.13;;;19.69;68.48
45327;BME280;31062;49.678;24.560;2023-06-10T14:18:11;97962.94;;;20.19;68.69
45327;BME280;31062;49.678;24.560;2023-06-10T14:20:57;97985.97;;;20.33;69.66
45327;BME280;31062;49.678;24.560;2023-06-10T14:23:42;97986.19;;;20.39;69.82
45327;BME280;31062;49.678;24.560;2023-06-10T14:26:31;98010.16;;;20.40;69.97
45327;BME280;31062;49.678;24.560;2023-06-10T14:29:18;97956.59;;;20.18;70.00
45327;BME280;31062;49.678;24.560;2023-06-10T14:32:04;98003.88;;;20.42;70.33
45327;BME280;31062;49.678;24.560;2023-06-10T14:34:53;97962.94;;;20.19;69.98
45327;BME280;31062;49.678;24.560;2023-06-10T14:37:39;97834.66;;;19.33;70.55